ORBI/SDA METAR and TAF weather

Enter ICAO airport designator
Station Type Date Time Source
ORBI METAR 2021/05/11 00:00 UTC NOAA

ORBI 110000Z 05008KT CAVOK 30/06 Q1005 NOSIG


Station Type Date Time Source
ORBI Decoded METAR 2021/05/11 00:00 UTC NOAA

Station name not available
May 10, 2021 - 08:00 PM EDT / 2021.05.11 0000 UTC
Wind: from the NE (050 degrees) at 9 MPH (8 KT):0
Visibility: greater than 7 mile(s):0
Temperature: 86 F (30 C)
Dew Point: 42 F (6 C)
Relative Humidity: 22%
Pressure (altimeter): 29.68 in. Hg (1005 hPa)
ob: ORBI 110000Z 05008KT CAVOK 30/06 Q1005 NOSIG
cycle: 0

Station Type Date Time Source
ORBI TAF 2021/05/10 18:41 UTC NOAA

TAF ORBI 101700Z 1018/1118 VRB03KT 8000 SCT030 SCT080

Example: see airport list